Waitakeres Weather Go to January February March April May June
November Summaries Go to July August September October November December
Details 2007 2008 2009 2010 2011 2012 2013 2014 2015 2016 2017
Highest Temperature 24.0C 26.3C 19.9C 23.9C 20.7C 21.9C 25.3C 20.7C 24.4C 23.8C 24.3C
Lowest Temperature 9.4C 8.5C 6.8C 6.9C 7.6C 7.2C 8.0C 6.6C 4.4C 5.7C 7.2C
Average Temperature 15.3C 15.8C 14.3C 15.1C 14.4C 13.7C 15.8C 14.1C 14.6C 14.9C 15.5C
Highest Pressure 1027.0 hPa 1025.0 hPa 1029.0 hPa 1031.8 hPa 1032.1 hPa 1025.8 hPa 1026.1 hPa 1024.0 hPa 1028.4 hPa 1026.2 hPa 1028.9 hPa
Lowest Pressure 1000.0 hPa 995.0 hPa 1001.0 hPa 1008.7 hPa 1000.6 hPa 1004.3 hPa 997.0 hPa 996.6 hPa 1000.0 hPa 992.6 hPa 1007.4 hPa
Total Rain 97.2 mm 66.7 mm 45.2 mm 49.0 mm 68.6 mm 81.6 mm 80.4 mm 109.2 mm 118.6 mm 108.6 mm 33.6 mm
Most Rain in 24 hrs 22.0 mm 16.6 mm 14.4 mm 12.6 mm 23.4 mm 25.8 mm 17.6 mm 16.6 mm 27.6 mm 25.8 mm 12.0 mm
Heaviest Rain       31.0 mm/hr 66.2 mm/hr 104.8 mm/hr 144.0 mm/hr 128.0 mm/hr 107.6 mm/hr 110.8 mm/hr 76.8 mm/hr
Number of Rain Days 15 days 12 days 16 days 11 days 19 days 18 days 16 days 20 days 16 days 17 days 11 days
Highest Gust       20.9 km/hr 29.0 km/hr 22.5 km/hr 35.4 km/hr 33.8 km/hr 32.2 km/hr 35.4 km/hr 30.6 km/hr
Highest Average Wind       7.5 km/hr 7.6 km/hr 6.4 km/hr 9.7 km/hr 8.0 km/hr 8.0 km/hr 6.4 km/hr 9.7 km/hr
Highest Windrun       64.4 km 99.6 km 72.0 km 72.2 km 67.6 km 56.0 km 76.2 km 87.8 km
Back to Current Weather Go To Rainfall Data
Tabled Data - scroll down 2017 Temperature Pressure Rain Wind
for earlier years Maximum Minimum Average Maximum Minimum Day Total Maximum Rain Rate High Gust Highest Av Run
C C C hPa hPa mm mm/hr time km/h km/h km
01/11/2017 19.7C 12.9C 15.6C 1027.8 hPa 1025.9 hPa 0.4 mm 0.0 mm/hr 00:00 hrs 30.6 km/hr 9.7 km/hr 87.8 km
02/11/2017 21.1C 13.2C 16.0C 1027.0 hPa 1021.3 hPa 0.2 mm 0.0 mm/hr 00:00 hrs 27.4 km/hr 8.0 km/hr 74.6 km
03/11/2017 20.4C 14.4C 17.2C 1021.9 hPa 1016.3 hPa 2.8 mm 7.2 mm/hr 04:36 hrs 20.9 km/hr 6.4 km/hr 43.0 km
04/11/2017 19.3C 13.2C 16.6C 1017.9 hPa 1014.6 hPa 9.6 mm 32.4 mm/hr 10:42 hrs 14.5 km/hr 3.2 km/hr 11.8 km
05/11/2017 21.2C 12.7C 15.9C 1016.4 hPa 1013.2 hPa 0.0 mm 0.0 mm/hr 00:00 hrs 11.3 km/hr 1.6 km/hr 2.6 km
06/11/2017 18.6C 8.8C 13.9C 1020.2 hPa 1014.3 hPa 0.2 mm 0.0 mm/hr 00:00 hrs 17.7 km/hr 3.2 km/hr 16.6 km
07/11/2017 18.9C 7.2C 13.6C 1020.5 hPa 1012.7 hPa 0.0 mm 0.0 mm/hr 00:00 hrs 29.0 km/hr 6.4 km/hr 44.9 km
08/11/2017 19.2C 10.5C 15.0C 1018.1 hPa 1007.8 hPa 12.0 mm 24.8 mm/hr 06:40 hrs 24.1 km/hr 4.8 km/hr 35.8 km
09/11/2017 19.6C 8.6C 13.2C 1019.5 hPa 1016.2 hPa 0.0 mm 0.0 mm/hr 00:00 hrs 14.5 km/hr 3.2 km/hr 6.5 km
10/11/2017 18.0C 8.6C 13.1C 1017.0 hPa 1011.1 hPa 0.0 mm 0.0 mm/hr 00:00 hrs 12.9 km/hr 3.2 km/hr 5.2 km
11/11/2017 18.7C 10.8C 13.6C 1011.6 hPa 1007.4 hPa 0.0 mm 0.0 mm/hr 00:00 hrs 17.7 km/hr 3.2 km/hr 12.6 km
12/11/2017 18.3C 8.4C 13.1C 1015.4 hPa 1008.6 hPa 0.0 mm 0.0 mm/hr 00:00 hrs 17.7 km/hr 3.2 km/hr 18.5 km
13/11/2017 19.9C 8.4C 13.7C 1022.3 hPa 1015.0 hPa 0.2 mm 0.0 mm/hr 00:00 hrs 11.3 km/hr 3.2 km/hr 3.1 km
14/11/2017 19.3C 9.6C 13.9C 1025.8 hPa 1021.7 hPa 0.0 mm 0.0 mm/hr 00:00 hrs 11.3 km/hr 3.2 km/hr 7.9 km
15/11/2017 20.0C 9.6C 14.1C 1026.3 hPa 1024.2 hPa 0.0 mm 0.0 mm/hr 00:00 hrs 17.7 km/hr 4.8 km/hr 20.7 km
16/11/2017 21.1C 9.5C 14.9C 1026.3 hPa 1020.3 hPa 0.0 mm 0.0 mm/hr 00:00 hrs 17.7 km/hr 6.4 km/hr 33.4 km
17/11/2017 22.0C 11.6C 15.8C 1021.2 hPa 1014.9 hPa 0.2 mm 0.0 mm/hr 00:00 hrs 17.7 km/hr 3.2 km/hr 15.2 km
18/11/2017 19.2C 10.8C 14.9C 1016.4 hPa 1013.3 hPa 4.0 mm 4.8 mm/hr 22:23 hrs 19.3 km/hr 6.4 km/hr 34.1 km
19/11/2017 19.3C 10.7C 14.2C 1014.4 hPa 1010.5 hPa 1.8 mm 1.4 mm/hr 06:12 hrs 17.7 km/hr 3.2 km/hr 14.0 km
20/11/2017 24.3C 12.3C 17.3C 1016.7 hPa 1012.0 hPa 0.0 mm 0.0 mm/hr 00:00 hrs 16.1 km/hr 4.8 km/hr 13.4 km
21/11/2017 23.4C 11.1C 16.5C 1020.4 hPa 1016.3 hPa 0.0 mm 0.0 mm/hr 00:00 hrs 14.5 km/hr 3.2 km/hr 8.0 km
22/11/2017 22.1C 11.8C 16.2C 1025.9 hPa 1020.1 hPa 0.0 mm 0.0 mm/hr 00:00 hrs 12.9 km/hr 3.2 km/hr 7.1 km
23/11/2017 23.8C 11.0C 16.6C 1028.3 hPa 1025.8 hPa 0.0 mm 0.0 mm/hr 00:00 hrs 11.3 km/hr 3.2 km/hr 6.2 km
24/11/2017 23.8C 11.4C 17.0C 1028.1 hPa 1025.1 hPa 0.0 mm 0.0 mm/hr 00:00 hrs 9.7 km/hr 1.6 km/hr 0.5 km
25/11/2017 21.5C 12.0C 16.9C 1026.6 hPa 1024.0 hPa 0.0 mm 0.0 mm/hr 00:00 hrs 9.7 km/hr 1.6 km/hr 4.9 km
26/11/2017 22.2C 13.1C 16.9C 1026.6 hPa 1024.5 hPa 0.0 mm 0.0 mm/hr 00:00 hrs 14.5 km/hr 3.2 km/hr 21.7 km
27/11/2017 23.3C 12.7C 17.3C 1028.8 hPa 1025.1 hPa 0.0 mm 0.0 mm/hr 00:00 hrs 14.5 km/hr 4.8 km/hr 20.5 km
28/11/2017 22.1C 12.9C 17.3C 1028.9 hPa 1025.7 hPa 0.0 mm 0.0 mm/hr 00:00 hrs 12.9 km/hr 3.2 km/hr 9.7 km
29/11/2017 23.6C 13.1C 18.3C 1027.6 hPa 1020.8 hPa 2.2 mm 76.8 mm/hr 19:46 hrs 14.5 km/hr 3.2 km/hr 8.3 km
30/11/2017 20.1C 13.5C 16.7C 1026.9 hPa 1021.7 hPa 0.0 mm 0.0 mm/hr 00:00 hrs 3.2 km/hr 0.0 km/hr 0.0 km
Back to top                        
Tabled Data - scroll down 2016 Temperature Pressure Rain Wind
for earlier years Maximum Minimum Average Maximum Minimum Day Total Maximum Rain Rate High Gust Highest Av Run
C C C hPa hPa mm mm/hr time km/h km/h km
01/11/2016 18.9C 5.7C 12.7C 1019.5 hPa 1011.8 hPa 0.0 mm 0.0 mm/hr 00:00 hrs 19.3 km/hr 4.8 km/hr 13.8 km
02/11/2016 17.2C 9.6C 13.5C 1012.2 hPa 1008.3 hPa 1.6 mm 5.8 mm/hr 08:42 hrs 16.1 km/hr 3.2 km/hr 16.8 km
03/11/2016 18.6C 8.3C 13.2C 1010.7 hPa 1006.9 hPa 1.2 mm 27.8 mm/hr 17:24 hrs 16.1 km/hr 3.2 km/hr 15.7 km
04/11/2016 18.2C 10.7C 13.4C 1009.4 hPa 1006.4 hPa 3.8 mm 65.8 mm/hr 06:31 hrs 24.1 km/hr 4.8 km/hr 27.0 km
05/11/2016 18.3C 9.6C 13.9C 1010.4 hPa 1008.3 hPa 5.6 mm 33.4 mm/hr 10:00 hrs 14.5 km/hr 3.2 km/hr 9.1 km
06/11/2016 22.3C 13.9C 17.0C 1010.1 hPa 1006.7 hPa 2.8 mm 9.2 mm/hr 23:42 hrs 29.0 km/hr 6.4 km/hr 40.3 km
07/11/2016 17.5C 11.1C 14.2C 1007.6 hPa 999.0 hPa 23.8 mm 67.4 mm/hr 21:33 hrs 22.5 km/hr 4.8 km/hr 27.4 km
08/11/2016 17.2C 11.6C 13.9C 1015.9 hPa 1003.1 hPa 3.0 mm 8.6 mm/hr 04:54 hrs 35.4 km/hr 6.4 km/hr 76.2 km
09/11/2016 20.6C 12.7C 16.1C 1018.1 hPa 1015.5 hPa 0.0 mm 0.0 mm/hr 00:00 hrs 16.1 km/hr 3.2 km/hr 18.0 km
10/11/2016 20.6C 13.9C 16.7C 1016.6 hPa 1012.3 hPa 0.0 mm 0.0 mm/hr 00:00 hrs 14.5 km/hr 3.2 km/hr 10.7 km
11/11/2016 22.2C 14.6C 17.3C 1012.7 hPa 1001.5 hPa 0.6 mm 2.0 mm/hr 17:26 hrs 16.1 km/hr 4.8 km/hr 21.7 km
12/11/2016 17.1C 12.4C 14.3C 1004.2 hPa 997.9 hPa 4.2 mm 31.6 mm/hr 04:31 hrs 19.3 km/hr 4.8 km/hr 30.6 km
13/11/2016 18.8C 10.1C 13.9C 1013.7 hPa 1004.1 hPa 0.0 mm 0.0 mm/hr 00:00 hrs 17.7 km/hr 3.2 km/hr 21.2 km
14/11/2016 20.4C 9.6C 15.2C 1014.2 hPa 1011.0 hPa 0.0 mm 0.0 mm/hr 00:00 hrs 14.5 km/hr 4.8 km/hr 22.3 km
15/11/2016 18.3C 14.9C 16.6C 1011.7 hPa 1002.0 hPa 10.4 mm 42.6 mm/hr 15:39 hrs 22.5 km/hr 4.8 km/hr 42.0 km
16/11/2016 19.3C 13.4C 15.8C 1002.9 hPa 996.7 hPa 4.0 mm 56.8 mm/hr 22:00 hrs 20.9 km/hr 4.8 km/hr 33.0 km
17/11/2016 16.7C 9.8C 12.9C 998.5 hPa 992.6 hPa 25.8 mm 110.8 mm/hr 02:24 hrs 17.7 km/hr 4.8 km/hr 29.5 km
18/11/2016 18.8C 6.9C 13.1C 1011.4 hPa 998.3 hPa 0.8 mm 4.8 mm/hr 09:24 hrs 12.9 km/hr 3.2 km/hr 16.1 km
19/11/2016 15.9C 12.7C 14.6C 1012.2 hPa 1009.5 hPa 1.0 mm 0.0 mm/hr 00:00 hrs 17.7 km/hr 3.2 km/hr 29.8 km
20/11/2016 19.8C 12.4C 15.2C 1022.5 hPa 1011.5 hPa 0.0 mm 0.0 mm/hr 00:00 hrs 22.5 km/hr 4.8 km/hr 42.5 km
21/11/2016 19.7C 10.7C 14.9C 1025.5 hPa 1020.9 hPa 0.0 mm 0.0 mm/hr 00:00 hrs 17.7 km/hr 3.2 km/hr 18.1 km
22/11/2016 20.9C 9.5C 14.9C 1026.2 hPa 1023.0 hPa 0.0 mm 0.0 mm/hr 00:00 hrs 11.3 km/hr 3.2 km/hr 14.0 km
23/11/2016 21.3C 9.2C 14.9C 1024.4 hPa 1019.7 hPa 0.0 mm 0.0 mm/hr 00:00 hrs 11.3 km/hr 1.6 km/hr 5.3 km
24/11/2016 23.8C 9.6C 16.3C 1020.3 hPa 1013.5 hPa 0.0 mm 0.0 mm/hr 00:00 hrs 9.7 km/hr 3.2 km/hr 7.4 km
25/11/2016 19.0C 13.2C 15.9C 1014.0 hPa 1006.6 hPa 15.6 mm 33.2 mm/hr 12:28 hrs 16.1 km/hr 3.2 km/hr 9.0 km
26/11/2016 20.0C 11.9C 15.6C 1008.6 hPa 1005.6 hPa 0.0 mm 0.0 mm/hr 00:00 hrs 17.7 km/hr 3.2 km/hr 17.0 km
27/11/2016 18.9C 11.8C 15.0C 1007.6 hPa 1003.0 hPa 4.2 mm 69.4 mm/hr 18:35 hrs 24.1 km/hr 4.8 km/hr 33.9 km
28/11/2016 18.9C 11.1C 14.3C 1014.6 hPa 1005.6 hPa 0.0 mm 0.0 mm/hr 00:00 hrs 17.7 km/hr 3.2 km/hr 37.1 km
29/11/2016 20.1C 11.2C 14.9C 1015.7 hPa 1013.5 hPa 0.2 mm 0.0 mm/hr 00:00 hrs 14.5 km/hr 3.2 km/hr 12.5 km
30/11/2016 20.6C 11.1C 15.8C 1015.4 hPa 1012.7 hPa 0.0 mm 0.0 mm/hr 00:00 hrs 11.3 km/hr 1.6 km/hr 0.8 km
Back to top                        
Tabled Data - scroll down 2015 Temperature Pressure Rain Wind
for earlier years Maximum Minimum Average Maximum Minimum Day Total Maximum Rain Rate High Gust Highest Av Run
C C C hPa hPa mm mm/hr time km/h km/h km
01/11/2015 18.1C 7.2C 12.9C 1025.3 hPa 1020.6 hPa 0.0 mm 0.0 mm/hr 00:00 hrs 11.3 km/hr 1.6 km/hr 6.6 km
02/11/2015 17.8C 6.7C 11.8C 1025.6 hPa 1021.6 hPa 0.2 mm 0.0 mm/hr 00:00 hrs 11.3 km/hr 1.6 km/hr 5.2 km
03/11/2015 19.3C 9.8C 14.2C 1022.0 hPa 1013.0 hPa 0.0 mm 0.0 mm/hr 00:00 hrs 17.7 km/hr 3.2 km/hr 13.6 km
04/11/2015 16.4C 7.9C 13.1C 1013.1 hPa 1007.0 hPa 17.6 mm 37.6 mm/hr 08:26 hrs 32.2 km/hr 4.8 km/hr 48.4 km
05/11/2015 18.6C 5.6C 12.0C 1018.6 hPa 1013.0 hPa 0.0 mm 0.0 mm/hr 00:00 hrs 12.9 km/hr 3.2 km/hr 10.5 km
06/11/2015 19.9C 6.7C 12.8C 1019.1 hPa 1015.8 hPa 0.0 mm 0.0 mm/hr 00:00 hrs 12.9 km/hr 3.2 km/hr 10.1 km
07/11/2015 21.4C 7.8C 13.7C 1017.8 hPa 1014.3 hPa 0.0 mm 0.0 mm/hr 00:00 hrs 12.9 km/hr 1.6 km/hr 6.5 km
08/11/2015 19.8C 8.3C 13.5C 1015.7 hPa 1012.3 hPa 0.0 mm 0.0 mm/hr 00:00 hrs 12.9 km/hr 1.6 km/hr 9.0 km
09/11/2015 19.8C 9.5C 15.5C 1013.9 hPa 1011.5 hPa 1.2 mm 0.0 mm/hr 00:00 hrs 12.9 km/hr 1.6 km/hr 2.3 km
10/11/2015 21.9C 11.1C 15.7C 1014.1 hPa 1011.2 hPa 0.0 mm 0.0 mm/hr 00:00 hrs 11.3 km/hr 1.6 km/hr 4.9 km
11/11/2015 20.5C 11.5C 15.4C 1014.6 hPa 1011.0 hPa 0.2 mm 0.0 mm/hr 00:00 hrs 14.5 km/hr 3.2 km/hr 12.3 km
12/11/2015 19.1C 9.2C 14.8C 1023.0 hPa 1013.6 hPa 4.2 mm 27.0 mm/hr 21:28 hrs 17.7 km/hr 3.2 km/hr 21.2 km
13/11/2015 17.6C 4.4C 10.5C 1025.6 hPa 1022.0 hPa 0.0 mm 0.0 mm/hr 00:00 hrs 14.5 km/hr 4.8 km/hr 14.6 km
14/11/2015 18.3C 4.9C 11.7C 1024.0 hPa 1016.6 hPa 0.0 mm 0.0 mm/hr 00:00 hrs 17.7 km/hr 4.8 km/hr 11.8 km
15/11/2015 18.3C 10.3C 15.3C 1016.7 hPa 1012.1 hPa 1.6 mm 2.0 mm/hr 20:53 hrs 16.1 km/hr 3.2 km/hr 15.9 km
16/11/2015 17.9C 10.6C 14.4C 1012.8 hPa 1004.3 hPa 27.6 mm 12.2 mm/hr 13:16 hrs 14.5 km/hr 1.6 km/hr 4.5 km
17/11/2015 17.7C 9.9C 13.7C 1011.3 hPa 1008.2 hPa 0.2 mm 0.0 mm/hr 00:00 hrs 20.9 km/hr 4.8 km/hr 34.7 km
18/11/2015 17.2C 8.7C 13.4C 1017.6 hPa 1010.2 hPa 2.0 mm 7.6 mm/hr 05:59 hrs 22.5 km/hr 4.8 km/hr 25.3 km
19/11/2015 14.9C 8.1C 12.1C 1022.0 hPa 1017.0 hPa 1.6 mm 6.4 mm/hr 08:28 hrs 20.9 km/hr 4.8 km/hr 24.0 km
20/11/2015 19.6C 12.2C 14.8C 1021.5 hPa 1010.7 hPa 3.2 mm 7.2 mm/hr 08:15 hrs 22.5 km/hr 4.8 km/hr 27.6 km
21/11/2015 17.0C 15.3C 16.0C 1011.6 hPa 1003.2 hPa 11.0 mm 23.8 mm/hr 14:53 hrs 30.6 km/hr 8.0 km/hr 56.0 km
22/11/2015 20.2C 12.1C 16.0C 1016.8 hPa 1000.0 hPa 17.6 mm 107.6 mm/hr 00:10 hrs 29.0 km/hr 6.4 km/hr 52.1 km
23/11/2015 20.2C 8.8C 13.9C 1021.3 hPa 1016.7 hPa 0.0 mm 0.0 mm/hr 00:00 hrs 14.5 km/hr 3.2 km/hr 10.6 km
24/11/2015 21.3C 7.8C 14.9C 1021.3 hPa 1018.7 hPa 0.0 mm 0.0 mm/hr 00:00 hrs 12.9 km/hr 3.2 km/hr 4.8 km
25/11/2015 23.4C 13.1C 17.6C 1022.1 hPa 1019.2 hPa 0.0 mm 0.0 mm/hr 00:00 hrs 16.1 km/hr 3.2 km/hr 7.8 km
26/11/2015 23.9C 15.2C 18.8C 1023.5 hPa 1019.8 hPa 2.4 mm 5.2 mm/hr 04:46 hrs 16.1 km/hr 1.6 km/hr 2.2 km
27/11/2015 24.4C 14.6C 19.1C 1020.6 hPa 1014.6 hPa 20.4 mm 46.2 mm/hr 20:19 hrs 19.3 km/hr 4.8 km/hr 17.3 km
28/11/2015 22.6C 13.4C 17.4C 1019.0 hPa 1014.3 hPa 7.6 mm 20.8 mm/hr 16:41 hrs 17.7 km/hr 3.2 km/hr 13.9 km
29/11/2015 21.6C 12.1C 16.4C 1024.5 hPa 1018.8 hPa 0.0 mm 0.0 mm/hr 00:00 hrs 9.7 km/hr 3.2 km/hr 1.0 km
30/11/2015 21.4C 12.4C 17.2C 1028.4 hPa 1024.1 hPa 0.0 mm 0.0 mm/hr 00:00 hrs 17.7 km/hr 3.2 km/hr 15.7 km
Back to top                        
Tabled Data - scroll down 2014 Temperature Pressure Rain Wind
for earlier years Maximum Minimum Average Maximum Minimum Day Total Maximum Rain Rate High Gust Highest Av Run
C C C hPa hPa mm mm/hr time km/h km/h km
01/11/2014 20.5C 13.5C 16.2C 1021.2 hPa 1016.7 hPa 0.2 mm 0.0 mm/hr 00:00 hrs 11.3 km/hr 3.2 km/hr 27.1 km
02/11/2014 19.9C 13.2C 15.9C 1021.1 hPa 1015.2 hPa 0.0 mm 0.0 mm/hr 00:00 hrs 19.3 km/hr 3.2 km/hr 18.0 km
03/11/2014 17.1C 10.2C 14.7C 1017.7 hPa 1010.9 hPa 16.6 mm 128.0 mm/hr 08:15 hrs 27.4 km/hr 3.2 km/hr 22.4 km
04/11/2014 18.2C 8.9C 13.1C 1018.7 hPa 1016.4 hPa 0.2 mm 0.0 mm/hr 00:00 hrs 11.3 km/hr 3.2 km/hr 13.1 km
05/11/2014 16.6C 8.4C 11.6C 1017.7 hPa 1014.5 hPa 4.6 mm 24.2 mm/hr 06:56 hrs 12.9 km/hr 3.2 km/hr 11.6 km
06/11/2014 15.7C 6.8C 10.9C 1021.2 hPa 1012.6 hPa 2.0 mm 21.0 mm/hr 03:08 hrs 19.3 km/hr 4.8 km/hr 39.7 km
07/11/2014 17.8C 6.7C 11.7C 1023.6 hPa 1020.0 hPa 1.4 mm 5.4 mm/hr 02:04 hrs 16.1 km/hr 4.8 km/hr 26.9 km
08/11/2014 19.3C 6.6C 12.3C 1023.9 hPa 1021.3 hPa 0.0 mm 0.0 mm/hr 00:00 hrs 16.1 km/hr 3.2 km/hr 21.4 km
09/11/2014 19.7C 6.8C 13.0C 1024.0 hPa 1021.6 hPa 0.0 mm 0.0 mm/hr 00:00 hrs 12.9 km/hr 3.2 km/hr 11.8 km
10/11/2014 20.7C 8.3C 13.9C 1022.2 hPa 1014.9 hPa 0.0 mm 0.0 mm/hr 00:00 hrs 12.9 km/hr 3.2 km/hr 13.1 km
11/11/2014 18.2C 11.9C 14.7C 1015.0 hPa 1000.1 hPa 15.2 mm 35.0 mm/hr 22:03 hrs 29.0 km/hr 6.4 km/hr 46.4 km
12/11/2014 17.3C 8.7C 12.0C 1000.4 hPa 996.6 hPa 7.0 mm 36.6 mm/hr 14:00 hrs 24.1 km/hr 4.8 km/hr 54.7 km
13/11/2014 16.7C 7.4C 11.1C 1007.3 hPa 996.8 hPa 6.0 mm 44.0 mm/hr 11:09 hrs 22.5 km/hr 4.8 km/hr 62.1 km
14/11/2014 17.4C 10.2C 12.7C 1013.5 hPa 1007.0 hPa 4.4 mm 54.8 mm/hr 11:32 hrs 20.9 km/hr 4.8 km/hr 58.3 km
15/11/2014 17.4C 12.2C 14.3C 1012.7 hPa 1002.6 hPa 11.6 mm 90.0 mm/hr 16:14 hrs 30.6 km/hr 6.4 km/hr 67.6 km
16/11/2014 18.2C 10.5C 14.1C 1008.1 hPa 1003.1 hPa 0.0 mm 0.0 mm/hr 00:00 hrs 17.7 km/hr 4.8 km/hr 43.6 km
17/11/2014 17.8C 9.9C 13.4C 1008.4 hPa 1000.0 hPa 7.8 mm 35.2 mm/hr 10:08 hrs 33.8 km/hr 8.0 km/hr 46.1 km
18/11/2014 19.4C 10.6C 14.9C 1014.6 hPa 1005.0 hPa 0.0 mm 0.0 mm/hr 00:00 hrs 17.7 km/hr 4.8 km/hr 53.7 km
19/11/2014 19.1C 8.8C 14.1C 1014.6 hPa 1009.6 hPa 0.2 mm 0.0 mm/hr 00:00 hrs 22.5 km/hr 4.8 km/hr 44.8 km
20/11/2014 18.5C 10.2C 14.0C 1021.3 hPa 1010.8 hPa 0.0 mm 0.0 mm/hr 00:00 hrs 17.7 km/hr 4.8 km/hr 54.6 km
21/11/2014 18.6C 9.7C 14.9C 1022.4 hPa 1019.9 hPa 0.0 mm 0.0 mm/hr 00:00 hrs 12.9 km/hr 3.2 km/hr 18.3 km
22/11/2014 19.8C 14.8C 16.2C 1020.1 hPa 1016.4 hPa 5.2 mm 8.6 mm/hr 20:15 hrs 24.1 km/hr 4.8 km/hr 38.1 km
23/11/2014 20.2C 11.3C 15.9C 1020.6 hPa 1017.1 hPa 3.0 mm 3.6 mm/hr 01:55 hrs 14.5 km/hr 3.2 km/hr 18.0 km
24/11/2014 17.9C 11.1C 15.2C 1020.3 hPa 1016.1 hPa 2.0 mm 5.4 mm/hr 21:47 hrs 12.9 km/hr 1.6 km/hr 3.9 km
25/11/2014 20.2C 16.1C 17.2C 1017.3 hPa 1015.1 hPa 2.2 mm 1.0 mm/hr 01:16 hrs 9.7 km/hr 3.2 km/hr 11.5 km
26/11/2014 18.4C 11.8C 16.1C 1017.1 hPa 1014.1 hPa 1.6 mm 1.6 mm/hr 12:21 hrs 12.9 km/hr 3.2 km/hr 23.3 km
27/11/2014 19.7C 9.8C 15.1C 1016.7 hPa 1012.7 hPa 0.0 mm 0.0 mm/hr 00:00 hrs 12.9 km/hr 3.2 km/hr 17.6 km
28/11/2014 18.9C 11.0C 14.4C 1013.2 hPa 1007.6 hPa 15.6 mm 70.6 mm/hr 06:42 hrs 22.5 km/hr 4.8 km/hr 34.8 km
29/11/2014 18.0C 10.1C 13.7C 1014.6 hPa 1011.0 hPa 0.0 mm 0.0 mm/hr 00:00 hrs 20.9 km/hr 4.8 km/hr 39.2 km
30/11/2014 20.0C 10.9C 14.5C 1014.2 hPa 1010.3 hPa 2.4 mm 19.8 mm/hr 17:16 hrs 17.7 km/hr 4.8 km/hr 27.6 km
Back to top                        
Tabled Data - scroll down 2013 Temperature Pressure Rain Wind
for earlier years Maximum Minimum Average Maximum Minimum Day Total Maximum Rain Rate High Gust Highest Av Run
C C C hPa hPa mm mm/hr time km/h km/h km
01/11/2013 18.9C 9.7C 13.9C 1011.8 hPa 1007.3 hPa 2.6 mm 2.8 mm/hr 00:26 hrs 14.5 km/hr 3.2 km/hr 30.2 km
02/11/2013 17.8C 8.0C 12.4C 1017.7 hPa 1011.8 hPa 0.6 mm 1.6 mm/hr 07:18 hrs 19.3 km/hr 4.8 km/hr 35.1 km
03/11/2013 18.9C 8.6C 13.2C 1018.1 hPa 1016.6 hPa 0.2 mm 0.0 mm/hr 00:00 hrs 12.9 km/hr 3.2 km/hr 14.4 km
04/11/2013 20.8C 8.7C 14.2C 1018.3 hPa 1016.3 hPa 0.0 mm 0.0 mm/hr 00:00 hrs 12.9 km/hr 3.2 km/hr 12.2 km
05/11/2013 19.2C 9.2C 13.6C 1017.5 hPa 1010.8 hPa 17.0 mm 65.8 mm/hr 23:46 hrs 17.7 km/hr 6.4 km/hr 42.2 km
06/11/2013 19.8C 10.3C 14.0C 1012.2 hPa 1007.3 hPa 17.6 mm 123.8 mm/hr 14:16 hrs 12.9 km/hr 3.2 km/hr 9.2 km
07/11/2013 15.9C 9.7C 12.5C 1007.4 hPa 1003.7 hPa 5.0 mm 10.4 mm/hr 12:27 hrs 8.0 km/hr 1.6 km/hr 1.4 km
08/11/2013 18.4C 8.7C 13.3C 1011.4 hPa 1005.2 hPa 0.8 mm 11.0 mm/hr 09:44 hrs 9.7 km/hr 3.2 km/hr 8.0 km
09/11/2013 19.7C 12.7C 15.1C 1015.0 hPa 1011.0 hPa 0.0 mm 0.0 mm/hr 00:00 hrs 12.9 km/hr 4.8 km/hr 26.9 km
10/11/2013 17.8C 12.7C 15.0C 1016.2 hPa 1013.4 hPa 0.0 mm 0.0 mm/hr 00:00 hrs 14.5 km/hr 3.2 km/hr 30.9 km
11/11/2013 19.2C 12.5C 15.5C 1019.3 hPa 1014.7 hPa 0.0 mm 0.0 mm/hr 00:00 hrs 12.9 km/hr 4.8 km/hr 32.1 km
12/11/2013 20.7C 13.9C 16.5C 1025.8 hPa 1018.7 hPa 0.0 mm 0.0 mm/hr 00:00 hrs 9.7 km/hr 3.2 km/hr 10.4 km
13/11/2013 20.7C 9.3C 14.4C 1026.1 hPa 1022.1 hPa 0.0 mm 0.0 mm/hr 00:00 hrs 16.1 km/hr 4.8 km/hr 30.0 km
14/11/2013 20.1C 8.2C 13.3C 1024.0 hPa 1020.5 hPa 0.0 mm 0.0 mm/hr 00:00 hrs 11.3 km/hr 3.2 km/hr 17.0 km
15/11/2013 21.0C 8.6C 14.2C 1022.2 hPa 1018.2 hPa 0.0 mm 0.0 mm/hr 00:00 hrs 12.9 km/hr 3.2 km/hr 16.9 km
16/11/2013 22.1C 8.8C 15.2C 1019.2 hPa 1016.7 hPa 0.0 mm 0.0 mm/hr 00:00 hrs 9.7 km/hr 3.2 km/hr 17.2 km
17/11/2013 22.4C 12.3C 16.6C 1020.1 hPa 1017.3 hPa 0.0 mm 0.0 mm/hr 00:00 hrs 9.7 km/hr 3.2 km/hr 10.4 km
18/11/2013 23.5C 11.6C 17.3C 1021.3 hPa 1017.7 hPa 0.0 mm 0.0 mm/hr 00:00 hrs 16.1 km/hr 3.2 km/hr 15.7 km
19/11/2013 23.4C 13.5C 17.8C 1021.3 hPa 1018.4 hPa 0.2 mm 0.0 mm/hr 00:00 hrs 14.5 km/hr 3.2 km/hr 21.9 km
20/11/2013 22.6C 13.4C 17.4C 1019.2 hPa 1014.3 hPa 1.4 mm 15.8 mm/hr 11:49 hrs 19.3 km/hr 6.4 km/hr 48.6 km
21/11/2013 23.2C 13.9C 17.3C 1016.9 hPa 1013.7 hPa 6.4 mm 44.4 mm/hr 09:46 hrs 16.1 km/hr 4.8 km/hr 29.1 km
22/11/2013 24.9C 12.5C 18.4C 1018.8 hPa 1015.8 hPa 0.0 mm 0.0 mm/hr 00:00 hrs 11.3 km/hr 3.2 km/hr 16.7 km
23/11/2013 25.3C 12.6C 18.4C 1018.6 hPa 1015.3 hPa 0.0 mm 0.0 mm/hr 00:00 hrs 14.5 km/hr 4.8 km/hr 16.1 km
24/11/2013 23.6C 12.3C 17.5C 1016.5 hPa 1009.6 hPa 0.0 mm 0.0 mm/hr 00:00 hrs 11.3 km/hr 3.2 km/hr 20.9 km
25/11/2013 24.4C 12.0C 18.2C 1010.2 hPa 1004.6 hPa 0.4 mm 2.0 mm/hr 23:45 hrs 12.9 km/hr 3.2 km/hr 14.4 km
26/11/2013 24.1C 15.7C 18.8C 1007.4 hPa 1002.6 hPa 0.8 mm 4.8 mm/hr 08:30 hrs 17.7 km/hr 4.8 km/hr 21.5 km
27/11/2013 23.1C 14.8C 17.6C 1007.8 hPa 1001.6 hPa 11.4 mm 39.8 mm/hr 14:21 hrs 17.7 km/hr 3.2 km/hr 15.6 km
28/11/2013 20.7C 14.8C 16.9C 1001.6 hPa 997.0 hPa 8.4 mm 144.0 mm/hr 20:55 hrs 20.9 km/hr 4.8 km/hr 39.1 km
29/11/2013 21.4C 13.7C 17.1C 1010.2 hPa 999.9 hPa 4.8 mm 23.8 mm/hr 04:09 hrs 19.3 km/hr 4.8 km/hr 37.4 km
30/11/2013 23.3C 13.9C 17.9C 1013.4 hPa 1007.1 hPa 2.8 mm 70.6 mm/hr 17:42 hrs 35.4 km/hr 9.7 km/hr 72.2 km
Back to top                        
Tabled Data - scroll down 2012 Temperature Pressure Rain Wind
for earlier years Maximum Minimum Average Maximum Minimum Day Total Maximum Rain Rate High Gust Highest Av Run
C C C hPa hPa mm mm/hr time km/h km/h km
01/11/2012 19.7C 12.5C 14.7C 1014.4 hPa 1012.4 hPa 0.0 mm 0.0 mm/hr 00:00 hrs 9.7 km/hr 3.2 km/hr 21.7 km
02/11/2012 17.6C 12.3C 14.2C 1014.3 hPa 1009.3 hPa 0.0 mm 0.0 mm/hr 00:00 hrs 9.7 km/hr 3.2 km/hr 6.9 km
03/11/2012 17.6C 9.9C 13.5C 1010.8 hPa 1004.5 hPa 2.6 mm 16.2 mm/hr 12:52 hrs 19.3 km/hr 6.4 km/hr 38.1 km
04/11/2012 16.8C 8.2C 11.7C 1021.6 hPa 1010.7 hPa 0.4 mm 3.0 mm/hr 01:59 hrs 22.5 km/hr 6.4 km/hr 63.7 km
05/11/2012 18.1C 8.5C 12.9C 1023.3 hPa 1020.9 hPa 0.2 mm 0.0 mm/hr 00:00 hrs 19.3 km/hr 4.8 km/hr 34.0 km
06/11/2012 17.1C 7.2C 12.3C 1025.1 hPa 1021.4 hPa 7.2 mm 8.4 mm/hr 19:03 hrs 17.7 km/hr 3.2 km/hr 11.5 km
07/11/2012 15.6C 8.3C 12.0C 1025.6 hPa 1022.5 hPa 3.2 mm 5.8 mm/hr 03:56 hrs 9.7 km/hr 3.2 km/hr 10.6 km
08/11/2012 18.0C 7.4C 12.0C 1025.8 hPa 1023.0 hPa 0.0 mm 0.0 mm/hr 00:00 hrs 9.7 km/hr 3.2 km/hr 10.9 km
09/11/2012 18.7C 7.7C 12.8C 1025.6 hPa 1022.0 hPa 0.0 mm 0.0 mm/hr 00:00 hrs 12.9 km/hr 4.8 km/hr 30.5 km
10/11/2012 19.4C 7.6C 13.0C 1023.0 hPa 1018.9 hPa 0.0 mm 0.0 mm/hr 00:00 hrs 16.1 km/hr 4.8 km/hr 26.6 km
11/11/2012 16.6C 9.0C 12.8C 1019.1 hPa 1012.5 hPa 5.2 mm 20.8 mm/hr 19:37 hrs 17.7 km/hr 4.8 km/hr 34.6 km
12/11/2012 18.0C 9.2C 12.8C 1014.8 hPa 1012.5 hPa 2.0 mm 22.2 mm/hr 01:53 hrs 9.7 km/hr 3.2 km/hr 15.5 km
13/11/2012 18.1C 8.7C 11.9C 1014.3 hPa 1010.1 hPa 6.0 mm 59.4 mm/hr 14:31 hrs 9.7 km/hr 3.2 km/hr 14.3 km
14/11/2012 16.7C 8.6C 12.5C 1012.7 hPa 1010.2 hPa 0.8 mm 3.8 mm/hr 13:52 hrs 16.1 km/hr 4.8 km/hr 43.3 km
15/11/2012 18.1C 11.3C 14.1C 1012.3 hPa 1004.3 hPa 5.8 mm 43.6 mm/hr 06:11 hrs 22.5 km/hr 6.4 km/hr 35.2 km
16/11/2012 18.2C 10.3C 13.6C 1014.5 hPa 1008.9 hPa 2.0 mm 30.8 mm/hr 06:17 hrs 16.1 km/hr 4.8 km/hr 33.8 km
17/11/2012 16.4C 10.4C 13.5C 1013.7 hPa 1004.4 hPa 10.6 mm 10.8 mm/hr 12:11 hrs 19.3 km/hr 6.4 km/hr 41.8 km
18/11/2012 18.4C 10.6C 14.0C 1017.6 hPa 1006.8 hPa 2.4 mm 53.8 mm/hr 06:09 hrs 19.3 km/hr 6.4 km/hr 72.0 km
19/11/2012 18.6C 7.6C 12.8C 1020.7 hPa 1017.6 hPa 0.0 mm 0.0 mm/hr 00:00 hrs 14.5 km/hr 3.2 km/hr 20.3 km
20/11/2012 20.1C 8.2C 13.3C 1019.7 hPa 1015.5 hPa 0.0 mm 0.0 mm/hr 00:00 hrs 11.3 km/hr 3.2 km/hr 16.7 km
21/11/2012 20.8C 8.4C 14.6C 1017.1 hPa 1011.7 hPa 0.0 mm 0.0 mm/hr 00:00 hrs 9.7 km/hr 3.2 km/hr 19.4 km
22/11/2012 21.9C 12.9C 16.5C 1014.2 hPa 1011.1 hPa 0.0 mm 0.0 mm/hr 00:00 hrs 17.7 km/hr 4.8 km/hr 33.9 km
23/11/2012 21.8C 11.1C 15.6C 1015.9 hPa 1012.2 hPa 0.0 mm 0.0 mm/hr 00:00 hrs 11.3 km/hr 3.2 km/hr 19.3 km
24/11/2012 19.4C 9.3C 14.5C 1017.8 hPa 1014.2 hPa 0.0 mm 0.0 mm/hr 00:00 hrs 12.9 km/hr 3.2 km/hr 23.4 km
25/11/2012 20.2C 11.4C 15.1C 1019.7 hPa 1016.6 hPa 0.0 mm 0.0 mm/hr 00:00 hrs 14.5 km/hr 3.2 km/hr 27.7 km
26/11/2012 20.2C 13.1C 16.0C 1019.2 hPa 1015.9 hPa 0.2 mm 0.0 mm/hr 00:00 hrs 16.1 km/hr 4.8 km/hr 49.2 km
27/11/2012 19.7C 11.9C 15.7C 1018.2 hPa 1014.9 hPa 0.2 mm 0.0 mm/hr 00:00 hrs 14.5 km/hr 4.8 km/hr 56.1 km
28/11/2012 17.2C 11.7C 14.6C 1016.7 hPa 1013.4 hPa 25.8 mm 104.8 mm/hr 12:25 hrs 11.3 km/hr 3.2 km/hr 23.7 km
29/11/2012 16.7C 11.1C 14.5C 1014.2 hPa 1007.1 hPa 6.8 mm 5.6 mm/hr 11:21 hrs 9.7 km/hr 1.6 km/hr 11.1 km
30/11/2012 18.3C 10.8C 13.9C 1016.7 hPa 1008.3 hPa 0.2 mm 0.0 mm/hr 00:00 hrs 22.5 km/hr 6.4 km/hr 67.3 km
Back to top                        
2011 Temperature Pressure Rain Wind
Maximum Minimum Average Maximum Minimum Day Total Maximum Rain Rate High Gust Highest Av Run
C C C hPa hPa mm mm/hr time km/h km/h km
01/11/2011 18.2C 14.6C 16.0C 1017.4 hPa 1001.7 hPa 23.4 mm 66.2 mm/hr 20:40 hrs 22.5 km/hr 6.4 km/hr 99.6 km
02/11/2011 18.8C 14.2C 16.0C 1003.9 hPa 1000.6 hPa 0.6 mm 0.0 mm/hr 00:00 hrs 24.1 km/hr 7.4 km/hr 76.4 km
03/11/2011 18.4C 12.5C 14.9C 1007.6 hPa 1003.5 hPa 8.6 mm 21.0 mm/hr 23:48 hrs 17.7 km/hr 5.3 km/hr 49.3 km
04/11/2011 17.8C 11.0C 13.8C 1010.4 hPa 1006.9 hPa 1.2 mm 5.2 mm/hr 23:38 hrs 20.9 km/hr 4.8 km/hr 41.9 km
05/11/2011 15.9C 8.7C 12.1C 1012.9 hPa 1006.6 hPa 2.8 mm 24.8 mm/hr 00:39 hrs 19.3 km/hr 4.8 km/hr 46.4 km
06/11/2011 15.2C 7.6C 11.6C 1012.6 hPa 1008.7 hPa 5.4 mm 16.2 mm/hr 11:52 hrs 16.1 km/hr 4.6 km/hr 42.4 km
07/11/2011 17.2C 9.9C 13.0C 1018.2 hPa 1011.5 hPa 1.0 mm 0.0 mm/hr 00:00 hrs 16.1 km/hr 3.9 km/hr 27.2 km
08/11/2011 19.1C 11.1C 14.5C 1019.3 hPa 1017.3 hPa 0.0 mm 0.0 mm/hr 00:00 hrs 14.5 km/hr 3.9 km/hr 36.4 km
09/11/2011 17.0C 14.1C 15.3C 1019.7 hPa 1015.4 hPa 3.4 mm 9.4 mm/hr 16:23 hrs 14.5 km/hr 3.7 km/hr 44.8 km
10/11/2011 19.4C 11.2C 15.4C 1017.6 hPa 1009.5 hPa 1.4 mm 4.4 mm/hr 03:52 hrs 17.7 km/hr 5.9 km/hr 76.0 km
11/11/2011 19.3C 7.7C 13.1C 1017.6 hPa 1012.8 hPa 0.0 mm 0.0 mm/hr 00:00 hrs 12.9 km/hr 3.5 km/hr 22.9 km
12/11/2011 19.1C 9.3C 13.0C 1013.1 hPa 1009.1 hPa 0.2 mm 0.0 mm/hr 00:00 hrs 11.3 km/hr 3.9 km/hr 9.0 km
13/11/2011 18.9C 11.4C 14.0C 1015.9 hPa 1011.9 hPa 0.0 mm 0.0 mm/hr 00:00 hrs 16.1 km/hr 4.2 km/hr 35.8 km
14/11/2011 18.7C 9.8C 13.7C 1020.0 hPa 1015.8 hPa 0.0 mm 0.0 mm/hr 00:00 hrs 20.9 km/hr 5.1 km/hr 30.7 km
15/11/2011 18.9C 9.2C 14.1C 1021.2 hPa 1017.4 hPa 0.0 mm 0.0 mm/hr 00:00 hrs 16.1 km/hr 4.8 km/hr 25.4 km
16/11/2011 18.3C 11.3C 14.6C 1017.7 hPa 1012.8 hPa 3.6 mm 10.2 mm/hr 08:24 hrs 19.3 km/hr 5.4 km/hr 60.4 km
17/11/2011 16.6C 9.7C 13.4C 1017.2 hPa 1013.1 hPa 0.0 mm 0.0 mm/hr 00:00 hrs 11.3 km/hr 3.8 km/hr 39.1 km
18/11/2011 18.4C 10.4C 14.1C 1013.8 hPa 1011.2 hPa 0.4 mm 0.0 mm/hr 00:00 hrs 20.9 km/hr 5.8 km/hr 72.6 km
19/11/2011 18.3C 10.1C 13.6C 1019.4 hPa 1013.3 hPa 0.2 mm 0.0 mm/hr 00:00 hrs 22.5 km/hr 5.5 km/hr 60.9 km
20/11/2011 18.3C 11.3C 14.4C 1019.9 hPa 1017.1 hPa 0.0 mm 0.0 mm/hr 00:00 hrs 19.3 km/hr 4.9 km/hr 58.6 km
21/11/2011 19.3C 12.7C 15.5C 1017.9 hPa 1011.9 hPa 1.0 mm 9.8 mm/hr 19:09 hrs 29.0 km/hr 7.3 km/hr 76.9 km
22/11/2011 20.0C 10.4C 15.1C 1022.3 hPa 1015.7 hPa 0.0 mm 0.0 mm/hr 00:00 hrs 17.7 km/hr 4.4 km/hr 41.6 km
23/11/2011 19.6C 9.9C 15.1C 1022.4 hPa 1016.2 hPa 0.0 mm 0.0 mm/hr 00:00 hrs 27.4 km/hr 6.1 km/hr 53.1 km
24/11/2011 18.3C 12.2C 15.3C 1016.6 hPa 1009.5 hPa 12.0 mm 35.0 mm/hr 08:33 hrs 25.7 km/hr 7.6 km/hr 93.5 km
25/11/2011 17.6C 11.9C 14.1C 1016.5 hPa 1012.9 hPa 0.6 mm 0.8 mm/hr 20:34 hrs 19.3 km/hr 5.1 km/hr 86.6 km
26/11/2011 19.4C 12.9C 14.8C 1015.9 hPa 1010.9 hPa 0.2 mm 0.0 mm/hr 00:00 hrs 19.3 km/hr 6.1 km/hr 89.4 km
27/11/2011 19.7C 11.4C 14.8C 1019.0 hPa 1015.3 hPa 0.0 mm 0.0 mm/hr 00:00 hrs 12.9 km/hr 4.1 km/hr 32.5 km
28/11/2011 20.7C 11.2C 15.7C 1018.8 hPa 1015.9 hPa 1.2 mm 4.8 mm/hr 20:41 hrs 19.3 km/hr 4.9 km/hr 44.1 km
29/11/2011 17.2C 12.4C 15.1C 1027.1 hPa 1017.2 hPa 1.4 mm 0.0 mm/hr 00:00 hrs 17.7 km/hr 3.4 km/hr 35.0 km
30/11/2011 18.4C 12.6C 15.2C 1032.1 hPa 1027.0 hPa 0.0 mm 0.0 mm/hr 00:00 hrs 17.7 km/hr 5.5 km/hr 73.9 km
Back to top                        
2010 Temperature Pressure Rain Wind
Maximum Minimum Average Maximum Minimum Day Total Maximum Rain Rate High Gust Highest Av Run
C C C hPa hPa mm mm/hr time km/h km/h km
01/11/2010 19.9C 6.9C 12.6C 1030.4 hPa 1027.0 hPa 0.0 mm 0.0 mm/hr 00:00 hrs 11.3 km/hr 3.3 km/hr 17.3 km
02/11/2010 18.7C 9.5C 13.1C 1029.0 hPa 1026.2 hPa 0.0 mm 0.0 mm/hr 00:00 hrs 14.5 km/hr 4.1 km/hr 23.1 km
03/11/2010 19.2C 8.1C 12.8C 1028.0 hPa 1021.7 hPa 0.0 mm 0.0 mm/hr 00:00 hrs 12.9 km/hr 5.2 km/hr 35.3 km
04/11/2010 21.2C 8.1C 14.0C 1022.4 hPa 1013.5 hPa 2.4 mm 4.2 mm/hr 22:24 hrs 12.9 km/hr 4.0 km/hr 24.2 km
05/11/2010 16.1C 9.7C 13.8C 1013.7 hPa 1008.7 hPa 12.6 mm 31.0 mm/hr 02:50 hrs 19.3 km/hr 4.8 km/hr 49.3 km
06/11/2010 18.4C 8.8C 12.6C 1016.0 hPa 1010.5 hPa 0.2 mm 0.0 mm/hr 00:00 hrs 16.1 km/hr 4.7 km/hr 27.2 km
07/11/2010 18.7C 8.5C 12.2C 1023.4 hPa 1015.9 hPa 0.0 mm 0.0 mm/hr 00:00 hrs 12.9 km/hr 4.3 km/hr 14.4 km
08/11/2010 18.8C 8.1C 12.9C 1029.3 hPa 1023.3 hPa 0.0 mm 0.0 mm/hr 00:00 hrs 12.9 km/hr 4.7 km/hr 23.1 km
09/11/2010 19.4C 9.2C 13.1C 1031.8 hPa 1029.0 hPa 1.6 mm 15.4 mm/hr 16:45 hrs 11.3 km/hr 4.1 km/hr 17.8 km
10/11/2010 21.2C 9.2C 13.7C 1031.7 hPa 1025.1 hPa 0.2 mm 0.0 mm/hr 00:00 hrs 11.3 km/hr 4.4 km/hr 25.8 km
11/11/2010 15.6C 9.6C 13.2C 1025.1 hPa 1019.0 hPa 9.4 mm 19.2 mm/hr 11:35 hrs 9.7 km/hr 3.4 km/hr 18.4 km
12/11/2010 20.4C 12.3C 15.2C 1025.5 hPa 1020.0 hPa 0.8 mm 4.2 mm/hr 08:09 hrs 12.9 km/hr 3.7 km/hr 16.8 km
13/11/2010 19.6C 10.4C 15.1C 1028.7 hPa 1025.4 hPa 0.0 mm 0.0 mm/hr 00:00 hrs 12.9 km/hr 4.3 km/hr 26.4 km
14/11/2010 18.9C 15.0C 16.3C 1027.7 hPa 1019.4 hPa 0.0 mm 0.0 mm/hr 00:00 hrs 20.9 km/hr 4.6 km/hr 38.1 km
15/11/2010 20.3C 11.2C 15.4C 1019.8 hPa 1016.1 hPa 9.4 mm 7.2 mm/hr 08:47 hrs 11.3 km/hr 3.6 km/hr 27.3 km
16/11/2010 23.3C 10.9C 15.9C 1021.4 hPa 1019.0 hPa 0.0 mm 0.0 mm/hr 00:00 hrs 11.3 km/hr 3.2 km/hr 15.6 km
17/11/2010 23.9C 11.7C 16.5C 1021.5 hPa 1018.3 hPa 0.0 mm 0.0 mm/hr 00:00 hrs 9.7 km/hr 3.5 km/hr 13.8 km
18/11/2010 21.4C 12.3C 16.6C 1020.6 hPa 1018.1 hPa 0.0 mm 0.0 mm/hr 00:00 hrs 11.3 km/hr 3.3 km/hr 18.7 km
19/11/2010 20.6C 14.4C 17.2C 1021.2 hPa 1017.5 hPa 0.4 mm 0.0 mm/hr 00:00 hrs 11.3 km/hr 5.1 km/hr 48.3 km
20/11/2010 21.3C 17.1C 18.6C 1018.3 hPa 1012.0 hPa 2.2 mm 17.8 mm/hr 10:13 hrs 9.7 km/hr 2.5 km/hr 9.2 km
21/11/2010 17.8C 14.1C 15.9C 1014.8 hPa 1009.2 hPa 9.8 mm 27.2 mm/hr 04:20 hrs 19.3 km/hr 7.5 km/hr 64.4 km
22/11/2010 19.0C 10.1C 14.8C 1022.2 hPa 1014.1 hPa 0.0 mm 0.0 mm/hr 00:00 hrs 20.9 km/hr 7.4 km/hr 62.8 km
23/11/2010 16.4C 10.0C 13.2C 1027.4 hPa 1021.9 hPa 0.0 mm 0.0 mm/hr 00:00 hrs 6.4 km/hr 2.6 km/hr 9.6 km
24/11/2010 21.1C 8.3C 13.8C 1027.4 hPa 1023.3 hPa 0.0 mm 0.0 mm/hr 00:00 hrs 12.9 km/hr 4.3 km/hr 21.8 km
25/11/2010 19.3C 10.3C 14.7C 1023.8 hPa 1017.8 hPa 0.0 mm 0.0 mm/hr 00:00 hrs 14.5 km/hr 5.1 km/hr 44.5 km
26/11/2010 23.0C 14.2C 17.1C 1017.9 hPa 1013.5 hPa 0.0 mm 0.0 mm/hr 00:00 hrs 17.7 km/hr 3.7 km/hr 33.3 km
27/11/2010 23.5C 12.7C 17.1C 1019.8 hPa 1016.2 hPa 0.0 mm 0.0 mm/hr 00:00 hrs 11.3 km/hr 3.9 km/hr 20.4 km
28/11/2010 23.5C 14.7C 17.5C 1021.8 hPa 1019.2 hPa 0.0 mm 0.0 mm/hr 00:00 hrs 11.3 km/hr 3.4 km/hr 18.6 km
29/11/2010 23.5C 14.6C 17.9C 1021.9 hPa 1019.2 hPa 0.0 mm 0.0 mm/hr 00:00 hrs 9.7 km/hr 4.4 km/hr 12.6 km
30/11/2010 22.4C 12.6C 17.0C 1021.5 hPa 1019.0 hPa 0.0 mm 0.0 mm/hr 00:00 hrs 9.7 km/hr 2.3 km/hr 9.5 km
Back to top                        
2009 Temperature Pressure Rain Wind
Maximum Minimum Average Maximum Minimum Day Total Maximum Rain Rate High Gust Highest Av Run
C C C hPa hPa mm mm/hr time km/h km/h km
01/11/2009 19.1C 7.8C 13.5C 1022.0 hPa 1017.0 hPa 0.0 mm          
02/11/2009 16.0C 10.3C 13.2C 1015.0 hPa 1012.0 hPa 0.9 mm          
03/11/2009 17.2C 11.8C 14.5C 1016.0 hPa 1013.0 hPa 1.8 mm          
04/11/2009 18.7C 11.5C 15.1C 1016.0 hPa 1015.0 hPa 1.8 mm          
05/11/2009 16.0C 12.8C 14.4C 1016.0 hPa 1015.0 hPa 14.4 mm          
06/11/2009 18.8C 8.8C 13.8C 1026.0 hPa 1021.0 hPa 0.4 mm          
07/11/2009 16.5C 6.8C 11.7C 1029.0 hPa 1026.0 hPa 0.0 mm          
08/11/2009 17.3C 11.8C 14.6C 1024.0 hPa 1020.0 hPa 0.0 mm          
09/11/2009 16.4C 10.4C 13.4C 1016.0 hPa 1012.0 hPa 1.8 mm          
10/11/2009 18.6C 10.5C 14.6C 1013.0 hPa 1013.0 hPa 0.0 mm          
11/11/2009 16.0C 9.6C 12.8C 1011.0 hPa 1009.0 hPa 0.9 mm          
12/11/2009 18.2C 7.5C 12.9C 1013.0 hPa 1013.0 hPa 0.0 mm          
13/11/2009 16.2C 8.1C 12.2C 1013.0 hPa 1012.0 hPa 1.8 mm          
14/11/2009 17.2C 9.8C 13.5C 1014.0 hPa 1014.0 hPa 0.0 mm          
15/11/2009 15.8C 11.1C 13.5C 1010.0 hPa 1006.0 hPa 4.0 mm          
16/11/2009 16.8C 11.6C 14.2C 1008.0 hPa 1006.0 hPa 0.9 mm          
17/11/2009 18.4C 10.7C 14.6C 1010.0 hPa 1008.0 hPa 0.9 mm          
18/11/2009 16.8C 12.8C 14.8C 1004.0 hPa 1001.0 hPa 6.3 mm          
19/11/2009 16.6C 12.0C 14.3C 1015.0 hPa 1012.0 hPa 0.0 mm          
20/11/2009 17.8C 11.0C 14.4C 1017.0 hPa 1017.0 hPa 0.0 mm          
21/11/2009 18.8C 12.7C 15.8C 1017.0 hPa 1016.0 hPa 0.0 mm          
22/11/2009 16.5C 14.2C 15.4C 1018.0 hPa 1015.0 hPa 2.2 mm          
23/11/2009 18.2C 11.7C 15.0C 1020.0 hPa 1019.0 hPa 0.0 mm          
24/11/2009 17.0C 12.2C 14.6C 1018.0 hPa 1017.0 hPa 0.0 mm          
25/11/2009 19.9C 9.6C 14.8C 1019.0 hPa 1016.0 hPa 0.0 mm          
26/11/2009 18.8C 11.4C 15.1C 1015.0 hPa 1014.0 hPa 0.0 mm          
27/11/2009 18.8C 11.1C 15.0C 1015.0 hPa 1013.0 hPa 0.0 mm          
28/11/2009 18.6C 12.6C 15.6C 1011.0 hPa 1007.0 hPa 4.5 mm          
29/11/2009 19.1C 15.9C 17.5C 1011.0 hPa 1008.0 hPa 1.3 mm          
30/11/2009 18.2C 14.4C 16.3C 1013.0 hPa 1011.0 hPa 1.3 mm          
Back to top                        
2008 Temperature Pressure Rain Wind
Maximum Minimum Average Maximum Minimum Day Total Maximum Rain Rate High Gust Highest Av Run
C C C hPa hPa mm mm/hr time km/h km/h km
01/11/2008 15.4C 10.5C 13.0C 1018.0 hPa 1016.0 hPa 3.6 mm          
02/11/2008 17.0C 11.5C 14.3C 1017.0 hPa 1014.0 hPa 6.3 mm          
03/11/2008 16.4C 11.8C 14.1C 1018.0 hPa 1010.0 hPa 0.0 mm          
04/11/2008 17.0C 13.0C 15.0C 1008.0 hPa 1002.0 hPa 3.6 mm          
05/11/2008 16.0C 13.0C 14.5C 1002.0 hPa 995.0 hPa 13.0 mm          
06/11/2008 15.7C 8.7C 12.2C 1008.0 hPa 1007.0 hPa 2.2 mm          
07/11/2008 16.4C 10.5C 13.5C 1017.0 hPa 1011.0 hPa 3.1 mm          
08/11/2008 18.0C 8.5C 13.3C 1023.0 hPa 1021.0 hPa 0.0 mm          
09/11/2008 17.5C 11.8C 14.7C 1025.0 hPa 1025.0 hPa 0.0 mm          
10/11/2008 16.8C 11.8C 14.3C 1025.0 hPa 1024.0 hPa 0.0 mm          
11/11/2008 22.4C 11.7C 17.1C 1023.0 hPa 1022.0 hPa 0.0 mm          
12/11/2008 22.6C 12.6C 17.6C 1022.0 hPa 1021.0 hPa 0.0 mm          
13/11/2008 20.0C 14.5C 17.3C 1022.0 hPa 1021.0 hPa 0.0 mm          
14/11/2008 23.4C 12.9C 18.2C 1023.0 hPa 1022.0 hPa 0.0 mm          
15/11/2008 21.1C 14.0C 17.6C 1025.0 hPa 1024.0 hPa 0.0 mm          
16/11/2008 21.2C 12.9C 17.1C 1021.0 hPa 1015.0 hPa 0.0 mm          
17/11/2008 16.5C 12.0C 14.3C 1009.0 hPa 1009.0 hPa 4.0 mm          
18/11/2008 17.7C 10.7C 14.2C 1013.0 hPa 1011.0 hPa 1.3 mm          
19/11/2008 16.9C 11.0C 14.0C 1018.0 hPa 1018.0 hPa 0.0 mm          
20/11/2008 20.1C 10.6C 15.4C 1020.0 hPa 1018.0 hPa 0.0 mm          
21/11/2008 21.2C 9.3C 15.3C 1021.0 hPa 1019.0 hPa 0.0 mm          
22/11/2008 22.0C 12.1C 17.1C 1017.0 hPa 1016.0 hPa 0.0 mm          
23/11/2008 19.6C 14.2C 16.9C 1017.0 hPa 1017.0 hPa 8.1 mm          
24/11/2008 18.0C 16.1C 17.1C 1014.0 hPa 1009.0 hPa 16.6 mm          
25/11/2008 19.5C 15.4C 17.5C 1007.0 hPa 1007.0 hPa 4.5 mm          
26/11/2008 22.4C 15.0C 18.7C 1007.0 hPa 1006.0 hPa 0.4 mm          
27/11/2008 21.0C 12.6C 16.8C 1012.0 hPa 1011.0 hPa 0.0 mm          
28/11/2008 21.6C 12.0C 16.8C 1015.0 hPa 1014.0 hPa 0.0 mm          
29/11/2008 23.8C 13.1C 18.5C 1014.0 hPa 1014.0 hPa 0.0 mm          
30/11/2008 26.3C 13.3C 19.8C 1011.0 hPa 1010.0 hPa 0.0 mm          
Back to top                        
2007 Temperature Pressure Rain Wind
Maximum Minimum Average Maximum Minimum Day Total Maximum Rain Rate High Gust Highest Av Run
C C C hPa hPa mm mm/hr time km/h km/h km
01/11/2007 18.6C 10.9C 14.8C 1025.0 hPa 1022.0 hPa 2.2 mm          
02/11/2007 18.5C 13.0C 15.8C 1021.0 hPa 1020.0 hPa 4.5 mm          
03/11/2007 19.4C 12.4C 15.9C 1020.0 hPa 1017.0 hPa 2.2 mm          
04/11/2007 16.7C 15.0C 15.9C 1014.0 hPa 1011.0 hPa 18.0 mm          
05/11/2007 16.6C 15.1C 15.9C 1012.0 hPa 1007.0 hPa 9.4 mm          
06/11/2007 12.1C 11.0C 11.6C 1014.0 hPa 1014.0 hPa 22.0 mm          
07/11/2007 14.9C 10.2C 12.6C 1014.0 hPa 1014.0 hPa 2.2 mm          
08/11/2007 16.5C 9.6C 13.1C 1019.0 hPa 1018.0 hPa 0.0 mm          
09/11/2007 17.5C 10.5C 14.0C 1023.0 hPa 1020.0 hPa 0.0 mm          
10/11/2007 19.2C 9.6C 14.4C 1025.0 hPa 1024.0 hPa 0.0 mm          
11/11/2007 18.4C 10.4C 14.4C 1026.0 hPa 1024.0 hPa 0.4 mm          
12/11/2007 21.0C 11.2C 16.1C 1021.0 hPa 1017.0 hPa 2.7 mm          
13/11/2007 18.2C 10.2C 14.2C 1011.0 hPa 1003.0 hPa 2.7 mm          
14/11/2007 15.8C 9.8C 12.8C 1011.0 hPa 1000.0 hPa 13.0 mm          
15/11/2007 18.8C 9.4C 14.1C 1018.0 hPa 1016.0 hPa 0.0 mm          
16/11/2007 15.3C 11.2C 13.3C 1016.0 hPa 1016.0 hPa 8.1 mm          
17/11/2007 19.5C 9.6C 14.6C 1020.0 hPa 1017.0 hPa 0.0 mm          
18/11/2007 19.2C 12.8C 16.0C 1023.0 hPa 1023.0 hPa 0.0 mm          
19/11/2007 21.2C 11.5C 16.4C 1024.0 hPa 1023.0 hPa 0.0 mm          
20/11/2007 19.2C 11.5C 15.4C 1025.0 hPa 1024.0 hPa 0.0 mm          
21/11/2007 21.2C 12.0C 16.6C 1027.0 hPa 1024.0 hPa 0.0 mm          
22/11/2007 22.4C 11.9C 17.2C 1023.0 hPa 1021.0 hPa 0.0 mm          
23/11/2007 20.7C 12.4C 16.6C 1020.0 hPa 1016.0 hPa 0.0 mm          
24/11/2007 19.2C 13.6C 16.4C 1014.0 hPa 1013.0 hPa 5.8 mm          
25/11/2007 24.0C 13.2C 18.6C 1014.0 hPa 1014.0 hPa 0.0 mm          
26/11/2007 23.3C 14.1C 18.7C 1013.0 hPa 1013.0 hPa 0.0 mm          
27/11/2007 22.5C 12.5C 17.5C 1013.0 hPa 1013.0 hPa 0.0 mm          
28/11/2007 21.3C 11.7C 16.5C 1016.0 hPa 1014.0 hPa 1.3 mm          
29/11/2007 17.8C 11.8C 14.8C 1017.0 hPa 1012.0 hPa 0.0 mm          
30/11/2007 17.5C 10.9C 14.2C 1011.0 hPa 1011.0 hPa 2.7 mm          
Back to top